createdAt,value
2022-09-30T00:01:44.431Z,96602.66
2022-09-30T00:04:16.257Z,96611.66
2022-09-30T00:06:44.906Z,96617.69
2022-09-30T00:09:13.139Z,96613.97
2022-09-30T00:11:44.015Z,96614.66
2022-09-30T00:14:17.536Z,96618.13
2022-09-30T00:16:46.725Z,96620.34
2022-09-30T00:19:14.998Z,96628.47
2022-09-30T00:21:43.501Z,96618.63
2022-09-30T00:24:11.527Z,96619.00
2022-09-30T00:26:39.729Z,96630.59
2022-09-30T00:29:09.009Z,96625.03
2022-09-30T00:31:38.208Z,96622.91
2022-09-30T00:34:11.424Z,96613.59
2022-09-30T00:36:43.558Z,96619.94
2022-09-30T00:39:14.765Z,96616.59
2022-09-30T00:41:43.396Z,96609.56
2022-09-30T00:44:51.737Z,96619.47
2022-09-30T00:47:32.078Z,96626.81
2022-09-30T00:50:04.412Z,96624.88
2022-09-30T00:52:33.403Z,96621.22
2022-09-30T00:55:05.040Z,96624.22
2022-09-30T00:57:33.559Z,96618.94
2022-09-30T01:00:03.589Z,96610.38
2022-09-30T01:02:32.162Z,96612.13
2022-09-30T01:05:00.030Z,96626.13
2022-09-30T01:07:29.134Z,96630.25
2022-09-30T01:09:58.244Z,96640.16
2022-09-30T01:12:28.028Z,96644.25
2022-09-30T01:14:58.252Z,96640.91
2022-09-30T01:17:39.042Z,96640.53
2022-09-30T01:20:37.692Z,96637.00
2022-09-30T01:23:33.260Z,96632.28
2022-09-30T01:26:33.902Z,96640.28
2022-09-30T01:29:20.215Z,96642.78
2022-09-30T01:31:58.518Z,96642.81
2022-09-30T01:34:37.512Z,96639.97
2022-09-30T01:37:15.422Z,96647.09
2022-09-30T01:39:52.711Z,96662.56
2022-09-30T01:42:27.133Z,96653.78
2022-09-30T01:45:03.906Z,96648.50
2022-09-30T01:47:38.225Z,96647.72
2022-09-30T01:50:13.717Z,96653.75
2022-09-30T01:52:50.335Z,96656.78
2022-09-30T01:55:24.600Z,96653.78
2022-09-30T01:57:58.804Z,96652.28
2022-09-30T02:00:27.838Z,96658.19
2022-09-30T02:03:02.901Z,96662.94
2022-09-30T02:05:39.455Z,96660.22
2022-09-30T02:08:13.517Z,96653.44
2022-09-30T02:10:49.054Z,96650.38
2022-09-30T02:13:26.843Z,96654.47
2022-09-30T02:15:58.608Z,96669.03
2022-09-30T02:18:34.869Z,96658.47
2022-09-30T02:21:06.700Z,96670.63
2022-09-30T02:23:40.751Z,96668.97
2022-09-30T02:26:14.837Z,96671.44
2022-09-30T02:28:48.244Z,96683.22
2022-09-30T02:31:19.932Z,96677.19
2022-09-30T02:33:54.388Z,96672.41
2022-09-30T02:36:29.123Z,96673.31
2022-09-30T02:39:02.655Z,96667.66
2022-09-30T02:41:36.185Z,96678.94
2022-09-30T02:44:04.513Z,96668.41
2022-09-30T02:46:42.961Z,96674.16
2022-09-30T02:49:20.521Z,96678.97
2022-09-30T02:52:09.516Z,96680.22
2022-09-30T02:54:49.626Z,96682.34
2022-09-30T02:57:23.348Z,96672.00
2022-09-30T02:59:54.123Z,96677.56
2022-09-30T03:02:27.601Z,96682.97
2022-09-30T03:04:57.780Z,96680.13
2022-09-30T03:07:25.994Z,96686.81
2022-09-30T03:09:58.333Z,96698.69
2022-09-30T03:12:40.329Z,96696.47
2022-09-30T03:15:23.241Z,96703.63
2022-09-30T03:18:38.926Z,96699.53
2022-09-30T03:21:22.158Z,96705.75
2022-09-30T03:24:16.708Z,96706.50
2022-09-30T03:26:53.936Z,96710.16
2022-09-30T03:29:29.197Z,96706.81
2022-09-30T03:32:11.409Z,96705.25
2022-09-30T03:34:52.208Z,96708.72
2022-09-30T03:37:30.561Z,96708.59
2022-09-30T03:40:03.990Z,96717.66
2022-09-30T03:42:39.455Z,96717.66
2022-09-30T03:45:14.540Z,96727.41
2022-09-30T03:47:47.267Z,96735.66
2022-09-30T03:50:20.283Z,96732.28
2022-09-30T03:52:51.002Z,96726.59
2022-09-30T03:55:20.311Z,96735.78
2022-09-30T03:57:49.507Z,96736.91
2022-09-30T04:00:19.358Z,96740.44
2022-09-30T04:02:47.397Z,96737.91
2022-09-30T04:05:15.691Z,96744.09
2022-09-30T04:07:43.650Z,96742.50
2022-09-30T04:10:12.938Z,96748.72
2022-09-30T04:12:40.783Z,96740.75
2022-09-30T04:15:10.247Z,96748.38
2022-09-30T04:17:38.079Z,96742.59
2022-09-30T04:20:07.129Z,96746.91
2022-09-30T04:22:35.034Z,96758.50
2022-09-30T04:25:03.185Z,96755.16
2022-09-30T04:27:32.442Z,96759.59
2022-09-30T04:30:01.016Z,96761.31
2022-09-30T04:32:28.993Z,96758.75
2022-09-30T04:34:57.558Z,96759.13
2022-09-30T04:37:25.464Z,96754.31
2022-09-30T04:39:54.033Z,96756.69
2022-09-30T04:42:21.882Z,96754.16
2022-09-30T04:44:51.773Z,96770.69
2022-09-30T04:47:19.615Z,96765.13
2022-09-30T04:49:47.898Z,96772.75
2022-09-30T04:52:15.749Z,96759.88
2022-09-30T04:54:44.253Z,96772.16
2022-09-30T04:57:14.072Z,96780.59
2022-09-30T04:59:42.704Z,96778.81
2022-09-30T05:02:12.852Z,96773.09
2022-09-30T05:04:41.369Z,96786.97
2022-09-30T05:07:09.215Z,96785.38
2022-09-30T05:09:37.785Z,96785.03
2022-09-30T05:12:05.756Z,96785.31
2022-09-30T05:14:35.001Z,96785.06
2022-09-30T05:17:03.097Z,96787.47
2022-09-30T05:19:33.033Z,96786.31
2022-09-30T05:22:00.879Z,96789.88
2022-09-30T05:24:30.404Z,96790.16
2022-09-30T05:26:58.281Z,96791.13
2022-09-30T05:29:26.610Z,96796.38
2022-09-30T05:31:54.924Z,96801.88
2022-09-30T05:34:26.146Z,96798.53
2022-09-30T05:36:57.854Z,96814.28
2022-09-30T05:39:31.276Z,96810.19
2022-09-30T05:41:59.609Z,96801.91
2022-09-30T05:44:34.392Z,96807.34
2022-09-30T05:47:02.827Z,96812.91
2022-09-30T05:49:34.836Z,96823.09
2022-09-30T05:52:05.306Z,96821.03
2022-09-30T05:54:34.201Z,96822.78
2022-09-30T05:57:04.803Z,96817.84
2022-09-30T05:59:34.710Z,96823.44
2022-09-30T06:02:02.728Z,96826.59
2022-09-30T06:04:30.746Z,96830.09
2022-09-30T06:06:58.701Z,96834.25
2022-09-30T06:09:28.915Z,96844.28
2022-09-30T06:11:58.073Z,96837.41
2022-09-30T06:14:28.553Z,96840.16
2022-09-30T06:16:56.503Z,96843.06
2022-09-30T06:19:24.971Z,96836.94
2022-09-30T06:21:53.006Z,96857.53
2022-09-30T06:24:21.934Z,96860.84
2022-09-30T06:26:51.281Z,96857.31
2022-09-30T06:29:19.938Z,96861.25
2022-09-30T06:31:48.476Z,96869.50
2022-09-30T06:34:17.262Z,96868.22
2022-09-30T06:36:45.237Z,96874.22
2022-09-30T06:39:14.052Z,96872.13
2022-09-30T06:41:44.033Z,96878.41
2022-09-30T06:44:27.071Z,96875.28
2022-09-30T06:46:55.536Z,96883.97
2022-09-30T06:49:24.872Z,96874.81
2022-09-30T06:51:53.235Z,96878.25
2022-09-30T06:54:22.260Z,96882.63
2022-09-30T06:56:50.536Z,96895.91
2022-09-30T06:59:19.034Z,96896.09
2022-09-30T07:01:48.432Z,96903.22
2022-09-30T07:04:16.673Z,96908.50
2022-09-30T07:06:45.516Z,96906.94
2022-09-30T07:09:14.826Z,96915.22
2022-09-30T07:11:42.829Z,96914.53
2022-09-30T07:14:13.724Z,96925.38
2022-09-30T07:16:41.713Z,96925.09
2022-09-30T07:19:12.500Z,96931.63
2022-09-30T07:21:40.423Z,96924.19
2022-09-30T07:24:09.683Z,96925.41
2022-09-30T07:26:37.591Z,96917.91
2022-09-30T07:29:07.586Z,96921.31
2022-09-30T07:31:36.025Z,96922.13
2022-09-30T07:34:07.570Z,96914.06
2022-09-30T07:36:38.307Z,96911.66
2022-09-30T07:39:10.175Z,96928.06
2022-09-30T07:41:41.174Z,96931.47
2022-09-30T07:44:14.930Z,96936.44
2022-09-30T07:49:15.469Z,96938.53
2022-09-30T07:51:45.605Z,96937.31
2022-09-30T07:54:16.207Z,96942.56
2022-09-30T07:59:36.212Z,96944.59
2022-09-30T08:02:04.754Z,96947.84
2022-09-30T08:04:33.405Z,96942.34
2022-09-30T08:07:04.784Z,96946.78
2022-09-30T08:09:33.121Z,96948.31
2022-09-30T08:12:03.446Z,96944.59
2022-09-30T08:14:32.193Z,96942.44
2022-09-30T08:17:00.669Z,96961.13
2022-09-30T08:19:31.217Z,96973.63
2022-09-30T08:21:59.323Z,96972.81
2022-09-30T08:24:29.013Z,96979.56
2022-09-30T08:26:57.077Z,96985.72
2022-09-30T08:29:50.009Z,96980.56
2022-09-30T08:32:13.756Z,96985.28
2022-09-30T08:34:42.376Z,96985.53
2022-09-30T08:37:11.081Z,96983.41
2022-09-30T08:39:42.666Z,96992.91
2022-09-30T08:42:37.488Z,96990.66
2022-09-30T08:45:21.276Z,96979.41
2022-09-30T08:47:58.106Z,96984.16
2022-09-30T08:50:36.144Z,96989.63
2022-09-30T08:53:10.846Z,96979.81
2022-09-30T08:55:43.929Z,96983.34
2022-09-30T08:58:27.877Z,96983.25
2022-09-30T09:01:00.539Z,96988.84
2022-09-30T09:03:33.989Z,96984.84
2022-09-30T09:06:17.138Z,96993.22
2022-09-30T09:09:02.160Z,96992.16
2022-09-30T09:11:45.478Z,97003.59
2022-09-30T09:14:28.965Z,97002.63
2022-09-30T09:17:15.994Z,96999.38
2022-09-30T09:19:53.706Z,97002.63
2022-09-30T09:22:29.632Z,97004.75
2022-09-30T09:24:59.432Z,97003.94
2022-09-30T09:27:38.617Z,97006.31
2022-09-30T09:30:20.198Z,96997.41
2022-09-30T09:32:53.363Z,96987.31
2022-09-30T09:35:35.140Z,96995.75
2022-09-30T09:38:26.089Z,96992.38
2022-09-30T09:41:13.167Z,96985.38
2022-09-30T09:43:52.642Z,96987.16
2022-09-30T09:46:28.698Z,96979.66
2022-09-30T09:49:31.378Z,96993.63
2022-09-30T09:52:26.157Z,96982.25
2022-09-30T09:54:56.946Z,96984.84
2022-09-30T09:57:28.272Z,96989.47
2022-09-30T10:02:34.262Z,96981.66
2022-09-30T10:05:04.038Z,96988.28
2022-09-30T10:07:34.736Z,96992.13
2022-09-30T10:10:23.352Z,96990.78
2022-09-30T10:12:51.964Z,96996.13
2022-09-30T10:15:24.640Z,96999.03
2022-09-30T10:17:55.637Z,97002.03
2022-09-30T10:20:33.189Z,96997.66
2022-09-30T10:23:19.017Z,96990.16
2022-09-30T10:25:57.693Z,96993.25
2022-09-30T10:28:28.162Z,96996.53
2022-09-30T10:31:03.779Z,96984.56
2022-09-30T10:33:41.773Z,96989.75
2022-09-30T10:36:13.919Z,96985.00
2022-09-30T10:38:59.968Z,96994.09
2022-09-30T10:41:33.381Z,96983.94
2022-09-30T10:44:03.617Z,96985.72
2022-09-30T10:46:39.065Z,96987.69
2022-09-30T10:49:12.949Z,96985.00
2022-09-30T10:51:47.192Z,96993.72
2022-09-30T10:54:51.275Z,96989.50
2022-09-30T10:57:24.479Z,96979.50
2022-09-30T10:59:56.898Z,96989.94
2022-09-30T11:02:34.430Z,96987.84
2022-09-30T11:05:15.181Z,96980.38
2022-09-30T11:07:51.473Z,96978.53
2022-09-30T11:10:33.226Z,96976.34
2022-09-30T11:13:09.011Z,96967.44
2022-09-30T11:15:44.165Z,96969.06
2022-09-30T11:18:23.858Z,96978.84
2022-09-30T11:20:57.157Z,96978.84
2022-09-30T11:23:32.009Z,96988.75
2022-09-30T11:26:06.953Z,96976.41
2022-09-30T11:28:51.730Z,96985.59
2022-09-30T11:31:31.314Z,96983.84
2022-09-30T11:34:21.430Z,96980.25
2022-09-30T11:36:59.758Z,96980.09
2022-09-30T11:40:01.022Z,96993.03
2022-09-30T11:42:37.218Z,96992.16
2022-09-30T11:45:20.797Z,96993.22
2022-09-30T11:48:03.192Z,96985.56
2022-09-30T11:50:46.617Z,96989.44
2022-09-30T11:53:22.641Z,96975.41
2022-09-30T11:56:05.467Z,96978.44
2022-09-30T11:58:41.621Z,96973.06
2022-09-30T12:01:21.577Z,96972.56
2022-09-30T12:03:59.038Z,96972.06
2022-09-30T12:06:35.006Z,96981.41
2022-09-30T12:09:15.358Z,96970.69
2022-09-30T12:11:50.743Z,96979.31
2022-09-30T12:14:24.390Z,96974.44
2022-09-30T12:16:52.795Z,96972.06
2022-09-30T12:19:26.331Z,96968.16
2022-09-30T12:22:02.685Z,96963.91
2022-09-30T12:24:36.725Z,96975.44
2022-09-30T12:27:12.721Z,96972.22
2022-09-30T12:30:01.847Z,96973.00
2022-09-30T12:33:03.146Z,96978.56
2022-09-30T12:36:11.486Z,96972.22
2022-09-30T12:39:09.718Z,96971.16
2022-09-30T12:41:53.641Z,96967.38
2022-09-30T12:44:45.219Z,96968.19
2022-09-30T12:47:28.694Z,96969.69
2022-09-30T12:49:59.592Z,96975.97
2022-09-30T12:52:33.945Z,96977.25
2022-09-30T12:55:09.073Z,96983.75
2022-09-30T12:57:41.377Z,96986.13
2022-09-30T13:00:17.695Z,96985.00
2022-09-30T13:02:50.113Z,96994.59
2022-09-30T13:05:50.217Z,96992.66
2022-09-30T13:08:50.914Z,96995.13
2022-09-30T13:11:41.340Z,96995.59
2022-09-30T13:14:26.225Z,96991.59
2022-09-30T13:17:25.816Z,96992.53
2022-09-30T13:19:55.889Z,96990.50
2022-09-30T13:23:00.328Z,96991.94
2022-09-30T13:25:28.845Z,96990.66
2022-09-30T13:28:32.231Z,96989.53
2022-09-30T13:31:14.864Z,96991.94
2022-09-30T13:33:46.242Z,96981.09
2022-09-30T13:36:28.481Z,96987.97
2022-09-30T13:39:19.904Z,96990.13
2022-09-30T13:41:58.645Z,96988.56
2022-09-30T13:44:35.297Z,96995.78
2022-09-30T13:47:16.473Z,96994.00
2022-09-30T13:49:52.335Z,96998.03
2022-09-30T13:52:26.011Z,96993.63
2022-09-30T13:54:55.830Z,97003.63
2022-09-30T13:57:30.022Z,96993.69
2022-09-30T14:00:07.255Z,97005.19
2022-09-30T14:02:56.003Z,97011.06
2022-09-30T14:05:40.230Z,97007.34
2022-09-30T14:08:25.910Z,97013.63
2022-09-30T14:11:21.938Z,97003.25
2022-09-30T14:14:05.329Z,97007.94
2022-09-30T14:17:09.223Z,97005.69
2022-09-30T14:19:59.626Z,97006.56
2022-09-30T14:22:30.413Z,97008.06
2022-09-30T14:24:59.546Z,97005.03
2022-09-30T14:27:45.750Z,97012.75
2022-09-30T14:30:19.090Z,97006.66
2022-09-30T14:32:51.088Z,97011.81
2022-09-30T14:38:14.465Z,97015.06
2022-09-30T14:40:51.933Z,97011.69
2022-09-30T14:43:36.673Z,97018.94
2022-09-30T14:46:10.026Z,97023.19
2022-09-30T14:48:42.198Z,97014.63
2022-09-30T14:51:13.538Z,97025.69
2022-09-30T14:53:43.325Z,97021.41
2022-09-30T14:56:22.346Z,97018.63
2022-09-30T14:58:52.304Z,97019.91
2022-09-30T15:01:23.254Z,97019.97
2022-09-30T15:03:55.473Z,97021.44
2022-09-30T15:06:28.257Z,97021.81
2022-09-30T15:09:03.526Z,97019.50
2022-09-30T15:11:37.325Z,97021.59
2022-09-30T15:14:11.273Z,97024.88
2022-09-30T15:16:47.306Z,97023.81
2022-09-30T15:19:21.153Z,97029.66
2022-09-30T15:21:51.267Z,97026.78
2022-09-30T15:24:21.332Z,97025.03
2022-09-30T15:26:51.219Z,97028.25
2022-09-30T15:29:19.091Z,97028.34
2022-09-30T15:31:50.390Z,97034.34
2022-09-30T15:34:24.025Z,97029.94
2022-09-30T15:37:00.110Z,97033.91
2022-09-30T15:39:50.491Z,97034.50
2022-09-30T15:42:32.309Z,97039.22
2022-09-30T15:45:00.109Z,97036.97
2022-09-30T15:47:29.550Z,97030.47
2022-09-30T15:49:58.845Z,97035.91
2022-09-30T15:52:37.591Z,97038.66
2022-09-30T15:55:36.921Z,97044.81
2022-09-30T15:58:05.508Z,97041.72
2022-09-30T16:00:44.085Z,97031.06
2022-09-30T16:03:30.996Z,97042.88
2022-09-30T16:06:13.628Z,97040.34
2022-09-30T16:08:44.887Z,97035.03
2022-09-30T16:11:21.116Z,97040.72
2022-09-30T16:13:50.332Z,97043.19
2022-09-30T16:16:25.200Z,97050.13
2022-09-30T16:18:55.152Z,97050.91
2022-09-30T16:21:44.419Z,97061.38
2022-09-30T16:24:44.047Z,97066.63
2022-09-30T16:27:31.656Z,97061.69
2022-09-30T16:30:00.192Z,97060.75
2022-09-30T16:32:32.749Z,97063.59
2022-09-30T16:35:00.789Z,97063.97
2022-09-30T16:37:30.283Z,97060.03
2022-09-30T16:40:08.537Z,97067.59
2022-09-30T16:42:36.659Z,97055.63
2022-09-30T16:45:04.946Z,97062.03
2022-09-30T16:47:32.679Z,97062.56
2022-09-30T16:50:00.864Z,97064.16
2022-09-30T16:52:30.026Z,97062.75
2022-09-30T16:54:57.828Z,97068.09
2022-09-30T16:57:25.898Z,97061.91
2022-09-30T16:59:53.645Z,97063.19
2022-09-30T17:02:21.907Z,97066.28
2022-09-30T17:04:49.750Z,97068.16
2022-09-30T17:07:18.182Z,97076.56
2022-09-30T17:09:47.414Z,97075.47
2022-09-30T17:12:15.272Z,97079.00
2022-09-30T17:14:43.755Z,97079.84
2022-09-30T17:17:13.624Z,97083.75
2022-09-30T17:19:42.157Z,97091.66
2022-09-30T17:22:10.048Z,97092.53
2022-09-30T17:24:37.813Z,97099.75
2022-09-30T17:27:08.087Z,97104.59
2022-09-30T17:29:41.829Z,97104.34
2022-09-30T17:32:10.866Z,97095.56
2022-09-30T17:34:38.990Z,97110.59
2022-09-30T17:39:35.279Z,97111.59
2022-09-30T17:42:20.869Z,97106.16
2022-09-30T17:44:50.196Z,97116.09
2022-09-30T17:47:18.683Z,97113.19
2022-09-30T17:49:46.462Z,97111.59
2022-09-30T17:52:14.941Z,97117.50
2022-09-30T17:54:42.875Z,97117.19
2022-09-30T17:57:11.216Z,97125.72
2022-09-30T17:59:39.041Z,97116.94
2022-09-30T18:02:11.206Z,97119.66
2022-09-30T18:04:39.072Z,97115.78
2022-09-30T18:07:08.450Z,97115.78
2022-09-30T18:09:37.216Z,97124.06
2022-09-30T18:12:06.536Z,97122.63
2022-09-30T18:14:35.876Z,97107.56
2022-09-30T18:17:05.845Z,97111.88
2022-09-30T18:19:35.689Z,97112.53
2022-09-30T18:22:04.198Z,97116.19
2022-09-30T18:24:49.426Z,97124.28
2022-09-30T18:27:17.574Z,97123.88
2022-09-30T18:29:45.572Z,97119.88
2022-09-30T18:32:13.664Z,97110.97
2022-09-30T18:34:42.760Z,97112.16
2022-09-30T18:37:11.403Z,97113.59
2022-09-30T18:39:39.814Z,97114.69
2022-09-30T18:42:07.858Z,97114.34
2022-09-30T18:44:37.638Z,97113.53
2022-09-30T18:47:06.393Z,97108.84
2022-09-30T18:49:34.244Z,97119.91
2022-09-30T18:52:04.902Z,97118.63
2022-09-30T18:54:33.720Z,97120.94
2022-09-30T18:57:02.390Z,97126.06
2022-09-30T18:59:30.120Z,97114.44
2022-09-30T19:02:00.655Z,97117.06
2022-09-30T19:04:29.020Z,97114.28
2022-09-30T19:06:57.534Z,97113.00
2022-09-30T19:09:27.117Z,97114.13
2022-09-30T19:11:55.880Z,97094.16
2022-09-30T19:14:24.610Z,97110.69
2022-09-30T19:16:52.509Z,97110.78
2022-09-30T19:19:22.768Z,97120.31
2022-09-30T19:21:51.029Z,97119.31
2022-09-30T19:24:18.975Z,97111.91
2022-09-30T19:26:48.798Z,97114.75
2022-09-30T19:29:18.403Z,97120.63
2022-09-30T19:31:46.976Z,97124.31
2022-09-30T19:34:27.776Z,97126.06
2022-09-30T19:37:00.208Z,97126.06
2022-09-30T19:39:41.300Z,97130.28
2022-09-30T19:42:18.617Z,97131.06
2022-09-30T19:44:46.532Z,97127.69
2022-09-30T19:47:15.186Z,97129.41
2022-09-30T19:49:43.051Z,97128.69
2022-09-30T19:52:18.888Z,97132.38
2022-09-30T19:54:48.482Z,97132.28
2022-09-30T19:57:17.624Z,97138.38
2022-09-30T19:59:45.886Z,97135.16
2022-09-30T20:02:13.720Z,97136.56
2022-09-30T20:04:44.082Z,97129.16
2022-09-30T20:07:12.047Z,97146.84
2022-09-30T20:09:40.215Z,97151.28
2022-09-30T20:12:07.998Z,97150.94
2022-09-30T20:14:54.904Z,97153.84
2022-09-30T20:17:22.852Z,97138.63
2022-09-30T20:20:05.103Z,97151.00
2022-09-30T20:22:33.367Z,97151.28
2022-09-30T20:25:01.120Z,97151.97
2022-09-30T20:27:31.461Z,97157.66
2022-09-30T20:30:01.173Z,97163.69
2022-09-30T20:32:30.779Z,97149.78
2022-09-30T20:34:59.144Z,97157.94
2022-09-30T20:37:27.397Z,97154.78
2022-09-30T20:39:57.071Z,97154.06
2022-09-30T20:42:28.139Z,97155.56
2022-09-30T20:45:01.564Z,97154.38
2022-09-30T20:47:31.293Z,97148.09
2022-09-30T20:49:59.522Z,97151.69
2022-09-30T20:52:29.786Z,97133.69
2022-09-30T20:55:00.751Z,97132.81
2022-09-30T20:57:30.046Z,97125.41
2022-09-30T20:59:59.219Z,97137.69
2022-09-30T21:02:29.431Z,97138.22
2022-09-30T21:04:59.733Z,97136.66
2022-09-30T21:07:28.658Z,97119.88
2022-09-30T21:09:57.757Z,97125.69
2022-09-30T21:12:25.701Z,97130.66
2022-09-30T21:14:54.320Z,97107.19
2022-09-30T21:17:22.049Z,97123.13
2022-09-30T21:19:50.394Z,97113.94
2022-09-30T21:22:20.275Z,97114.63
2022-09-30T21:24:48.606Z,97103.19
2022-09-30T21:27:16.406Z,97105.25
2022-09-30T21:29:44.652Z,97113.25
2022-09-30T21:32:12.905Z,97117.16
2022-09-30T21:34:41.545Z,97117.25
2022-09-30T21:37:09.809Z,97120.41
2022-09-30T21:39:39.037Z,97122.72
2022-09-30T21:42:07.492Z,97121.84
2022-09-30T21:44:35.735Z,97123.53
2022-09-30T21:47:03.648Z,97128.44
2022-09-30T21:49:31.584Z,97133.47
2022-09-30T21:52:00.081Z,97138.13
2022-09-30T21:54:29.142Z,97134.50
2022-09-30T21:56:58.350Z,97129.03
2022-09-30T21:59:26.634Z,97144.63
2022-09-30T22:01:54.922Z,97134.75
2022-09-30T22:04:22.850Z,97137.97
2022-09-30T22:06:50.740Z,97156.34
2022-09-30T22:09:19.436Z,97155.50
2022-09-30T22:11:48.561Z,97163.09
2022-09-30T22:14:18.540Z,97161.97
2022-09-30T22:16:47.215Z,97174.06
2022-09-30T22:19:15.182Z,97163.63
2022-09-30T22:21:43.990Z,97180.53
2022-09-30T22:24:12.303Z,97173.53
2022-09-30T22:26:42.218Z,97172.56
2022-09-30T22:29:13.224Z,97170.84
2022-09-30T22:31:42.861Z,97178.72
2022-09-30T22:34:32.121Z,97183.59
2022-09-30T22:37:18.898Z,97183.66
2022-09-30T22:39:46.775Z,97182.31
2022-09-30T22:42:14.587Z,97176.66
2022-09-30T22:44:44.505Z,97174.66
2022-09-30T22:47:14.473Z,97170.38
2022-09-30T22:49:43.408Z,97169.63
2022-09-30T22:52:11.276Z,97170.50
2022-09-30T22:54:39.937Z,97157.06
2022-09-30T22:57:10.219Z,97167.00
2022-09-30T22:59:38.238Z,97167.22
2022-09-30T23:02:06.390Z,97162.09
2022-09-30T23:04:36.586Z,97166.66
2022-09-30T23:07:05.761Z,97171.81
2022-09-30T23:09:33.714Z,97174.53
2022-09-30T23:12:02.198Z,97173.78
2022-09-30T23:14:30.587Z,97172.63
2022-09-30T23:16:58.442Z,97182.59
2022-09-30T23:19:26.863Z,97187.44
2022-09-30T23:21:56.945Z,97175.59
2022-09-30T23:24:24.823Z,97172.81
2022-09-30T23:26:52.776Z,97166.31
2022-09-30T23:29:21.399Z,97149.72
2022-09-30T23:31:49.808Z,97160.41
2022-09-30T23:34:18.502Z,97174.47
2022-09-30T23:36:47.250Z,97170.25
2022-09-30T23:39:19.550Z,97177.16
2022-09-30T23:41:49.041Z,97174.28
2022-09-30T23:44:18.891Z,97185.31
2022-09-30T23:47:01.886Z,97175.44
2022-09-30T23:49:32.431Z,97171.22
2022-09-30T23:52:01.148Z,97155.50
2022-09-30T23:54:30.482Z,97176.31
2022-09-30T23:56:59.100Z,97160.59
2022-09-30T23:59:26.997Z,97164.38
